Welcome to Trans World Virtual Airlines!

Welcome TWVA's Newest Pilot:

TWA2313 Bryan Heald

Not a Trans World pilot yet?
Apply Now!




Sign-in with your pilot id or email, or register

Flight TWA632

  • Submitted By: Austin Hill
  • Departure Airport: Cedar Rapids Municipal Airport (KCID)
  • Arrival Airport: Lambert-Saint Louis International Airport (KSTL)
  • Aircraft: B717-200 (N401TW)
  • Flight Time: 01.26
  • Date Submitted: 07/01/2018
  • Route: CID IOW BRL STL
  • Status: Accepted
Flight Details
Gross Revenue:
(104 load / $ 65.00 per unit
$ 6, 760.00
Fuel Cost:
(5622 fuel used @ 0.8 / unit)
$ 4, 497.60

Additional Log Information:

View Log

FS[15:59] Aircraft Title - Pf2k B717-200 Paint7
FS[15:59] Aircraft Model - B717
FS[15:59] Flight Number TWA632
FS[15:59] Departure KCID
FS[15:59] Destination KSTL
FS[15:59] Boarding
FS[16:09] Pushing Back
FS[16:13] Taxiing to Runway
FS[16:18] Taking Off
FS[16:18] Taking Off
FS[16:18] 172kts
FS[16:18] pitch angle 9 degrees
FS[16:18] 19465 (lbs) of fuel onboard
FS[16:19] Climbing
FS[16:30] TOC Reached
FS[16:30] Cruise 27000
FS[16:39] TOD Reached
FS[16:39] Descending
FS[17:00] On Approach
FS[17:08] Landing Rate -222fpm
FS[17:08] 15060 (lbs) of fuel onboard
FS[17:08] pitch angle 1 degrees
FS[17:08] Taxiing to Gate
FS[17:17] Arrived
FS[17:23] Max Sim Rate: 1x
FS[17:23] kACARS_Free Version 1.0.1.1

Comments

Commenter Comment
Austin Hill KCID 011559Z 13113KT P6SM CLR 22/21 A2976 // KSTL 011644Z 20009KT P6SM FEW150 29/23 A2993

Route Map